Terminal Aerodrome Forecast
Issued by NWS

Home | Current Version | Previous Version | Graphics & Text | Print | Product List | Glossary On
Versions: 1 2 3 4 5 6 7 8 9 10 11 12 13 14 15 16 17 18 19 20
000
FTUS43 KICT 272320
TAFCNU
TAF
KCNU 272320Z 2800/2824 14008KT P6SM SCT080 BKN150
     FM281400 18015G23KT P6SM SCT040 BKN080
     FM282000 20014KT P6SM VCTS BKN100CB=

USA.gov is the U.S. government's official web portal to all federal, state and local government web resources and services.